Time;durP1;ratioP1;P1;durP2;ratioP2;P2;SDS_P1;SDS_P2;PMS_P1;PMS_P2;Temp;Humidity;BMP_temperature;BMP_pressure;BME280_temperature;BME280_humidity;BME280_pressure;Samples;Min_cycle;Max_cycle;Signal;HPM_P1;HPM_P2
2024/01/26 00:00:23;;;;;;;;;6.00;6.00;;;;;11.55;100.00;102495.31;5099695;27;45417;-86
2024/01/26 00:02:51;;;;;;;;;7.00;7.00;;;;;11.58;100.00;102534.16;5081053;27;45313;-86
2024/01/26 00:05:17;;;;;;;;;6.00;6.00;;;;;11.71;100.00;102533.88;5099609;27;45444;-86
2024/01/26 00:07:43;;;;;;;;;8.33;8.33;;;;;11.50;100.00;102499.88;5079913;27;45466;-86
2024/01/26 00:10:09;;;;;;;;;7.00;6.00;;;;;11.55;100.00;102505.94;5087015;27;45556;-87
2024/01/26 00:12:36;;;;;;;;;10.67;8.33;;;;;11.46;100.00;102499.09;5061679;27;45632;-86
2024/01/26 00:15:04;;;;;;;;;2.67;2.00;;;;;12.00;100.00;102600.31;5085293;27;45511;-86
2024/01/26 00:17:30;;;;;;;;;8.67;6.67;;;;;11.08;100.00;102432.91;5061352;27;45305;-86
2024/01/26 00:19:55;;;;;;;;;7.00;5.33;;;;;11.42;100.00;102491.22;5091659;27;46873;-86
2024/01/26 00:22:21;;;;;;;;;10.00;8.33;;;;;11.03;100.00;102439.22;5070927;27;45646;-86
2024/01/26 00:24:51;;;;;;;;;9.00;5.00;;;;;11.89;100.00;102577.59;5092658;27;45419;-86
2024/01/26 00:27:21;;;;;;;;;9.00;7.67;;;;;11.40;100.00;102472.75;5075254;27;45641;-86
2024/01/26 00:29:51;;;;;;;;;9.00;7.00;;;;;11.74;100.00;102548.81;5093293;27;45499;-86
2024/01/26 00:32:27;;;;;;;;;9.00;8.67;;;;;11.73;100.00;102553.25;5055527;28;45366;-85
2024/01/26 00:34:52;;;;;;;;;7.00;7.00;;;;;11.14;100.00;102427.47;5065585;27;45475;-84
2024/01/26 00:37:20;;;;;;;;;11.00;10.00;;;;;11.48;100.00;102512.31;5067688;27;45465;-85
2024/01/26 00:39:46;;;;;;;;;9.00;6.00;;;;;11.30;100.00;102449.16;5066541;28;46299;-86
2024/01/26 00:42:12;;;;;;;;;8.00;7.00;;;;;11.52;100.00;102504.22;5084828;27;45405;-86
2024/01/26 00:44:37;;;;;;;;;10.67;9.33;;;;;11.59;100.00;102497.00;5059842;28;45448;-86
2024/01/26 00:47:03;;;;;;;;;2.33;2.33;;;;;11.63;100.00;102511.94;5088952;27;45542;-85
2024/01/26 00:49:29;;;;;;;;;12.33;10.00;;;;;11.32;100.00;102432.31;5065239;28;48137;-85
2024/01/26 00:52:09;;;;;;;;;10.00;9.67;;;;;11.44;100.00;102447.03;5090372;27;45523;-86
2024/01/26 00:54:35;;;;;;;;;6.33;6.33;;;;;11.09;100.00;102386.13;5085785;27;45388;-85
2024/01/26 00:57:03;;;;;;;;;7.67;7.00;;;;;11.39;100.00;102451.56;5065292;27;45408;-85
2024/01/26 00:59:29;;;;;;;;;2.00;2.00;;;;;11.56;100.00;102469.72;5066187;28;46310;-85
2024/01/26 01:02:06;;;;;;;;;9.33;8.00;;;;;11.83;100.00;102527.38;5083835;27;45471;-86
2024/01/26 01:04:39;;;;;;;;;9.67;7.33;;;;;11.29;100.00;102420.91;5073652;27;45447;-86
2024/01/26 01:07:14;;;;;;;;;9.00;7.00;;;;;12.07;100.00;102533.84;5076781;27;45394;-85
2024/01/26 01:09:46;;;;;;;;;7.00;7.00;;;;;11.45;100.00;102424.97;5076343;27;47353;-86
2024/01/26 01:12:26;;;;;;;;;7.67;5.67;;;;;11.80;100.00;102499.19;5089257;27;45524;-85
2024/01/26 01:14:58;;;;;;;;;7.00;7.00;;;;;10.92;100.00;102371.50;5084480;27;45299;-85
2024/01/26 01:17:24;;;;;;;;;11.00;8.67;;;;;11.26;100.00;102410.41;5087126;27;45402;-86
2024/01/26 01:20:02;;;;;;;;;10.33;10.00;;;;;11.90;100.00;102527.19;5098972;27;47340;-85
2024/01/26 01:22:40;;;;;;;;;9.67;7.00;;;;;10.99;100.00;102359.00;5073208;28;45579;-86
2024/01/26 01:25:07;;;;;;;;;12.67;8.33;;;;;11.85;100.00;102496.38;5075337;28;45500;-85
2024/01/26 01:27:33;;;;;;;;;10.33;8.33;;;;;12.14;100.00;102551.34;5078921;28;45461;-85
2024/01/26 01:29:59;;;;;;;;;12.67;10.00;;;;;12.09;100.00;102538.19;5078747;28;46327;-86
2024/01/26 01:32:25;;;;;;;;;15.00;13.00;;;;;11.97;100.00;102523.50;5076553;27;45414;-86
2024/01/26 01:34:52;;;;;;;;;10.67;8.67;;;;;11.51;100.00;102422.16;5078401;28;45433;-87
2024/01/26 01:37:17;;;;;;;;;13.67;11.33;;;;;12.18;100.00;102530.00;5070628;27;45587;-86
2024/01/26 01:39:46;;;;;;;;;10.00;7.67;;;;;11.55;100.00;102434.38;5081127;28;46936;-85
2024/01/26 01:42:14;;;;;;;;;11.33;9.67;;;;;11.59;100.00;102424.59;5102750;27;45972;-85
2024/01/26 01:44:48;;;;;;;;;11.00;10.67;;;;;11.35;100.00;102424.28;5081497;28;45517;-86
2024/01/26 01:47:15;;;;;;;;;8.00;8.00;;;;;12.06;100.00;102516.19;5099324;27;45601;-87
2024/01/26 01:49:48;;;;;;;;;10.33;7.67;;;;;11.41;100.00;102416.22;5083512;28;45485;-86
2024/01/26 01:52:16;;;;;;;;;11.00;7.00;;;;;11.61;100.00;102446.63;5090586;27;45457;-86
2024/01/26 01:54:55;;;;;;;;;10.67;10.00;;;;;11.89;100.00;102480.38;5082108;27;45304;-86
2024/01/26 01:57:28;;;;;;;;;8.33;7.00;;;;;11.96;100.00;102484.63;5068364;28;45454;-85
2024/01/26 01:59:54;;;;;;;;;12.00;8.67;;;;;12.29;100.00;102538.56;5077774;27;46054;-86
2024/01/26 02:02:23;;;;;;;;;8.00;8.00;;;;;11.54;100.00;102407.94;5094005;27;45369;-85
2024/01/26 02:04:50;;;;;;;;;8.00;8.00;;;;;12.13;100.00;102509.81;5075918;28;45458;-85
2024/01/26 02:07:15;;;;;;;;;7.00;6.67;;;;;11.35;100.00;102391.66;5080883;27;45428;-85
2024/01/26 02:09:41;;;;;;;;;11.00;9.00;;;;;11.64;100.00;102412.97;5081550;28;45531;-85
2024/01/26 02:12:07;;;;;;;;;10.00;10.00;;;;;12.00;100.00;102472.16;5081542;28;45582;-86
2024/01/26 02:14:35;;;;;;;;;10.00;10.00;;;;;12.29;100.00;102519.97;5082460;28;45453;-85
2024/01/26 02:17:02;;;;;;;;;9.00;8.67;;;;;12.07;100.00;102484.34;5082174;28;45381;-85
2024/01/26 02:19:33;;;;;;;;;11.33;10.33;;;;;11.78;100.00;102424.09;5081934;28;46931;-85
2024/01/26 02:22:00;;;;;;;;;10.00;8.00;;;;;11.79;100.00;102436.44;5080057;28;45316;-86
2024/01/26 02:24:25;;;;;;;;;10.00;8.33;;;;;11.59;100.00;102375.09;5073420;28;45216;-85
2024/01/26 02:26:52;;;;;;;;;6.33;5.67;;;;;12.45;100.00;102541.66;5063121;28;45406;-86
2024/01/26 02:29:28;;;;;;;;;8.67;8.33;;;;;12.46;100.00;102541.63;5062168;28;46346;-86
2024/01/26 02:31:55;;;;;;;;;10.67;7.00;;;;;12.46;100.00;102528.38;5080425;28;45596;-85
2024/01/26 02:34:21;;;;;;;;;9.67;9.33;;;;;12.06;100.00;102426.03;5079563;28;45494;-86
2024/01/26 02:36:46;;;;;;;;;11.33;8.00;;;;;12.05;100.00;102426.91;5081023;28;45380;-85
2024/01/26 02:39:26;;;;;;;;;;;;;;;;;;;;;
2024/01/26 02:41:53;;;;;;;;;10.00;8.00;;;;;11.83;100.00;102405.44;5079262;28;72190;-85
2024/01/26 02:44:20;;;;;;;;;6.33;4.00;;;;;11.68;100.00;102350.16;5073945;28;45448;-85
2024/01/26 02:47:10;;;;;;;;;15.00;8.00;;;;;11.53;100.00;102340.81;5062442;28;45411;-86
2024/01/26 02:49:35;;;;;;;;;7.33;7.33;;;;;11.63;100.00;102360.88;5067904;28;46831;-86
2024/01/26 02:52:03;;;;;;;;;8.33;6.00;;;;;12.36;100.00;102459.66;5061758;28;45863;-85
2024/01/26 02:54:29;;;;;;;;;9.67;8.33;;;;;12.21;100.00;102444.16;5080142;28;45420;-85
2024/01/26 02:56:56;;;;;;;;;7.67;7.67;;;;;11.75;100.00;102370.28;5080347;28;45522;-85
2024/01/26 02:59:22;;;;;;;;;7.00;5.00;;;;;11.79;100.00;102362.22;5061102;28;48031;-85
2024/01/26 03:01:50;;;;;;;;;10.67;9.33;;;;;11.96;100.00;102382.97;5061923;28;45705;-85
2024/01/26 03:04:18;;;;;;;;;7.67;7.67;;;;;11.72;100.00;102335.94;5080267;28;45369;-86
2024/01/26 03:06:44;;;;;;;;;11.00;7.67;;;;;12.13;100.00;102435.56;5061770;27;45637;-85
2024/01/26 03:09:13;;;;;;;;;11.67;8.67;;;;;12.13;100.00;102441.72;5079604;28;45479;-86
2024/01/26 03:11:41;;;;;;;;;8.33;8.33;;;;;11.73;100.00;102369.47;5080570;27;45358;-86
2024/01/26 03:14:09;;;;;;;;;11.33;8.67;;;;;11.74;100.00;102382.72;5079683;28;45371;-85
2024/01/26 03:16:43;;;;;;;;;6.33;6.33;;;;;12.60;100.00;102519.16;5060862;28;45603;-85
2024/01/26 03:19:12;;;;;;;;;8.00;7.67;;;;;12.62;100.00;102509.34;5058811;28;47613;-86
2024/01/26 03:21:44;;;;;;;;;8.00;6.00;;;;;12.02;100.00;102399.59;5060635;28;45284;-86
2024/01/26 03:24:11;;;;;;;;;7.00;5.67;;;;;11.98;100.00;102382.03;5079683;28;45596;-86
2024/01/26 03:26:39;;;;;;;;;7.33;6.33;;;;;11.82;100.00;102358.63;5061533;28;45325;-86
2024/01/26 03:29:26;;;;;;;;;7.00;6.00;;;;;11.64;100.00;102306.09;5075683;27;45644;-85
2024/01/26 03:31:52;;;;;;;;;11.67;7.33;;;;;11.71;100.00;102318.31;5078426;28;45344;-85
2024/01/26 03:34:18;;;;;;;;;7.00;7.00;;;;;11.79;100.00;102322.47;5077325;28;45515;-86
2024/01/26 03:36:43;;;;;;;;;9.00;9.00;;;;;11.62;100.00;102322.03;5079709;28;45821;-85
2024/01/26 03:39:09;;;;;;;;;7.67;6.67;;;;;11.97;100.00;102390.91;5076705;28;48134;-85
2024/01/26 03:41:52;;;;;;;;;9.67;7.67;;;;;12.63;100.00;102490.69;5079734;28;45394;-85
2024/01/26 03:44:20;;;;;;;;;11.67;11.67;;;;;12.26;100.00;102408.66;5079787;28;45530;-85
2024/01/26 03:46:46;;;;;;;;;8.67;6.00;;;;;11.79;100.00;102316.28;5083197;27;45399;-85
2024/01/26 03:49:12;;;;;;;;;8.33;8.33;;;;;12.45;100.00;102446.13;5080807;27;45540;-85
2024/01/26 03:51:37;;;;;;;;;9.33;6.33;;;;;12.27;100.00;102401.56;5078579;28;45363;-85
2024/01/26 03:54:06;;;;;;;;;8.33;8.33;;;;;11.61;100.00;102301.75;5075986;28;45494;-85
2024/01/26 03:56:32;;;;;;;;;8.00;8.00;;;;;12.26;100.00;102390.06;5061461;28;45529;-86
2024/01/26 03:58:57;;;;;;;;;8.33;6.67;;;;;12.04;100.00;102388.09;5076282;27;46312;-85
2024/01/26 04:01:23;;;;;;;;;11.00;10.00;;;;;12.54;100.00;102467.09;5068317;28;45519;-85
2024/01/26 04:03:49;;;;;;;;;8.00;7.33;;;;;11.80;100.00;102345.44;5074803;28;45481;-85
2024/01/26 04:06:15;;;;;;;;;6.33;6.33;;;;;12.06;100.00;102351.78;5065356;28;45489;-85
2024/01/26 04:08:44;;;;;;;;;7.00;7.00;;;;;12.01;100.00;102363.38;5078739;28;46083;-85
2024/01/26 04:11:19;;;;;;;;;6.33;4.33;;;;;11.50;100.00;102262.31;5079171;28;45477;-85
2024/01/26 04:13:45;;;;;;;;;11.00;8.00;;;;;12.26;100.00;102395.38;5076644;27;45405;-85
2024/01/26 04:16:29;;;;;;;;;5.00;5.00;;;;;11.85;100.00;102332.91;5081868;27;45411;-85
2024/01/26 04:18:55;;;;;;;;;9.67;6.00;;;;;12.61;100.00;102455.38;5067330;28;46355;-86
2024/01/26 04:21:26;;;;;;;;;10.33;10.33;;;;;11.64;100.00;102261.91;5059274;28;45541;-85
2024/01/26 04:24:12;;;;;;;;;8.33;6.00;;;;;12.23;100.00;102361.00;5077333;28;45542;-85
2024/01/26 04:26:37;;;;;;;;;7.00;7.00;;;;;11.74;100.00;102307.63;5070243;28;45508;-85
2024/01/26 04:29:03;;;;;;;;;6.00;6.00;;;;;12.13;100.00;102354.22;5059637;28;47184;-85
2024/01/26 04:31:28;;;;;;;;;12.33;8.33;;;;;11.80;100.00;102294.19;5079967;27;45504;-85
2024/01/26 04:34:00;;;;;;;;;9.33;9.33;;;;;12.19;100.00;102361.13;5078873;28;45699;-85
2024/01/26 04:36:25;;;;;;;;;13.67;8.33;;;;;12.75;100.00;102457.63;5078711;28;45534;-85
2024/01/26 04:38:51;;;;;;;;;9.33;7.00;;;;;12.39;100.00;102388.81;5078501;28;46263;-85
2024/01/26 04:41:26;;;;;;;;;11.00;8.00;;;;;12.26;100.00;102395.38;5060074;28;45472;-84
2024/01/26 04:43:52;;;;;;;;;6.67;6.67;;;;;12.18;100.00;102385.88;5073255;28;45455;-84
2024/01/26 04:46:29;;;;;;;;;9.33;8.33;;;;;11.73;100.00;102306.75;5060206;28;45324;-85
2024/01/26 04:49:03;;;;;;;;;6.00;6.00;;;;;12.41;100.00;102423.25;5078577;27;46460;-85
2024/01/26 04:51:31;;;;;;;;;7.67;7.67;;;;;12.57;100.00;102434.28;5060055;28;46062;-84
2024/01/26 04:54:00;;;;;;;;;7.33;5.00;;;;;11.97;100.00;102372.34;5074077;28;45296;-84
2024/01/26 04:56:30;;;;;;;;;6.00;4.67;;;;;12.30;100.00;102393.53;5075936;28;45523;-85
2024/01/26 04:59:02;;;;;;;;;11.00;8.33;;;;;11.82;100.00;102313.56;5079985;28;46178;-85
2024/01/26 05:01:31;;;;;;;;;7.00;7.00;;;;;11.81;100.00;102319.78;5078604;28;45321;-84
2024/01/26 05:03:56;;;;;;;;;9.67;7.67;;;;;12.29;100.00;102386.47;5058681;28;45446;-84
2024/01/26 05:06:26;;;;;;;;;10.67;10.33;;;;;11.72;100.00;102294.38;5079712;27;45594;-84
2024/01/26 05:08:52;;;;;;;;;9.00;6.67;;;;;12.30;100.00;102390.88;5076356;27;46570;-84
2024/01/26 05:11:28;;;;;;;;;9.67;7.00;;;;;12.03;100.00;102331.53;5081350;27;45331;-83
2024/01/26 05:13:54;;;;;;;;;5.33;5.00;;;;;12.06;100.00;102349.13;5083696;27;45324;-84
2024/01/26 05:16:23;;;;;;;;;12.00;8.00;;;;;12.72;100.00;102465.69;5101097;27;45631;-84
2024/01/26 05:18:55;;;;;;;;;8.67;7.67;;;;;12.01;100.00;102307.69;5082563;27;45732;-84
2024/01/26 05:21:26;;;;;;;;;10.33;6.67;;;;;11.78;100.00;102291.56;5097266;27;45579;-83
2024/01/26 05:23:52;;;;;;;;;13.00;7.00;;;;;11.88;100.00;102273.59;5081027;27;45452;-84
2024/01/26 05:26:18;;;;;;;;;9.00;9.00;;;;;12.86;100.00;102439.63;5083173;27;45577;-85
2024/01/26 05:28:43;;;;;;;;;10.67;9.00;;;;;12.51;100.00;102383.13;5101260;27;45489;-84
2024/01/26 05:31:09;;;;;;;;;6.67;5.67;;;;;12.81;100.00;102434.44;5086963;27;45321;-84
2024/01/26 05:33:35;;;;;;;;;5.00;5.00;;;;;12.88;100.00;102469.63;5082707;27;45297;-84
2024/01/26 05:36:01;;;;;;;;;7.33;7.00;;;;;11.85;100.00;102273.69;5100489;27;45246;-84
2024/01/26 05:38:27;;;;;;;;;8.33;6.67;;;;;12.61;100.00;102404.97;5083287;27;46025;-84
2024/01/26 05:40:59;;;;;;;;;8.33;7.67;;;;;11.92;100.00;102293.81;5083498;27;45559;-84
2024/01/26 05:43:24;;;;;;;;;8.33;7.00;;;;;12.80;100.00;102453.91;5083121;27;45392;-84
2024/01/26 05:45:50;;;;;;;;;7.33;7.33;;;;;12.10;100.00;102345.47;5100377;27;45479;-84
2024/01/26 05:48:16;;;;;;;;;6.33;5.00;;;;;12.54;100.00;102420.19;5083262;27;47818;-84
2024/01/26 05:50:45;;;;;;;;;7.00;6.00;;;;;12.13;100.00;102335.66;5101558;27;45380;-84
2024/01/26 05:53:10;;;;;;;;;6.67;6.67;;;;;12.35;100.00;102386.28;5083140;27;45525;-84
2024/01/26 05:55:36;;;;;;;;;8.33;6.67;;;;;12.10;100.00;102337.50;5099697;27;45384;-84
2024/01/26 05:58:02;;;;;;;;;8.67;8.00;;;;;12.22;100.00;102376.94;5099045;27;45841;-84
2024/01/26 06:00:47;;;;;;;;;9.33;7.67;;;;;12.14;100.00;102361.22;5083082;27;45431;-84
2024/01/26 06:03:13;;;;;;;;;7.00;6.00;;;;;12.20;100.00;102339.00;5096403;27;45348;-84
2024/01/26 06:05:49;;;;;;;;;12.00;8.00;;;;;12.31;100.00;102372.22;5101168;27;45268;-84
2024/01/26 06:08:15;;;;;;;;;5.00;5.00;;;;;12.35;100.00;102397.75;5085343;27;45395;-83
2024/01/26 06:10:40;;;;;;;;;8.67;7.00;;;;;12.49;100.00;102402.66;5090404;27;45299;-83
2024/01/26 06:13:12;;;;;;;;;6.67;6.00;;;;;12.37;100.00;102387.97;5088635;27;45303;-84
2024/01/26 06:15:38;;;;;;;;;11.00;7.67;;;;;12.16;100.00;102354.13;5094998;27;45489;-83
2024/01/26 06:18:04;;;;;;;;;11.00;7.33;;;;;12.39;100.00;102386.16;5073683;27;45355;-83
2024/01/26 06:20:31;;;;;;;;;9.00;8.00;;;;;12.40;100.00;102393.19;5071608;28;45237;-83
2024/01/26 06:23:01;;;;;;;;;8.00;6.00;;;;;12.59;100.00;102422.72;5093914;27;45467;-83
2024/01/26 06:25:26;;;;;;;;;8.67;6.33;;;;;12.36;100.00;102378.28;5102411;27;45407;-83
2024/01/26 06:27:52;;;;;;;;;8.33;7.00;;;;;12.08;100.00;102347.28;5101993;27;45435;-83
2024/01/26 06:30:27;;;;;;;;;6.67;6.67;;;;;12.17;100.00;102361.13;5101838;27;45426;-83
2024/01/26 06:32:53;;;;;;;;;8.00;7.00;;;;;12.48;100.00;102414.19;5099209;27;45307;-82
2024/01/26 06:35:18;;;;;;;;;7.33;7.33;;;;;12.66;100.00;102434.91;5101672;27;45444;-83
2024/01/26 06:37:47;;;;;;;;;10.00;7.00;;;;;12.99;100.00;102528.59;5100910;27;45626;-83
2024/01/26 06:40:30;;;;;;;;;10.67;6.00;;;;;12.08;100.00;102358.75;5082646;27;45388;-83
2024/01/26 06:43:00;;;;;;;;;6.33;6.00;;;;;12.04;100.00;102356.25;5085993;27;45298;-83
2024/01/26 06:45:37;;;;;;;;;6.00;5.33;;;;;12.63;100.00;102464.16;5080704;27;45481;-85
2024/01/26 06:48:06;;;;;;;;;9.67;6.00;;;;;12.81;100.00;102489.31;5090572;27;46440;-85
2024/01/26 06:50:44;;;;;;;;;2.33;2.33;;;;;12.66;100.00;102444.66;5094889;27;45272;-85
2024/01/26 06:53:10;;;;;;;;;9.33;8.67;;;;;12.46;100.00;102424.88;5080382;27;45580;-85
2024/01/26 06:55:35;;;;;;;;;9.67;5.67;;;;;12.26;100.00;102391.84;5098393;27;45879;-85
2024/01/26 06:58:11;;;;;;;;;11.67;6.67;;;;;11.83;100.00;102318.81;5098471;27;46195;-85
2024/01/26 07:00:36;;;;;;;;;11.33;7.00;;;;;12.80;100.00;102493.75;5079207;27;45745;-85
2024/01/26 07:03:02;;;;;;;;;8.67;4.67;;;;;12.73;100.00;102451.53;5079779;27;45404;-85
2024/01/26 07:05:27;;;;;;;;;6.00;6.00;;;;;12.86;100.00;102468.81;5084841;27;45449;-85
2024/01/26 07:07:54;;;;;;;;;7.67;7.67;;;;;12.06;100.00;102351.78;5083721;27;45367;-84
2024/01/26 07:10:20;;;;;;;;;7.67;5.33;;;;;12.42;100.00;102417.03;5095853;27;45524;-86
2024/01/26 07:12:45;;;;;;;;;7.00;6.67;;;;;12.72;100.00;102474.53;5078698;28;45380;-85
2024/01/26 07:15:11;;;;;;;;;7.67;7.67;;;;;12.47;100.00;102421.28;5079758;28;45574;-85
2024/01/26 07:17:38;;;;;;;;;9.00;5.00;;;;;12.93;100.00;102516.38;5079276;28;45609;-86
2024/01/26 07:20:05;;;;;;;;;7.33;6.33;;;;;12.44;100.00;102445.25;5075050;27;45559;-90
2024/01/26 07:22:30;;;;;;;;;9.00;6.67;;;;;12.66;100.00;102474.72;5073480;28;45368;-90
2024/01/26 07:24:56;;;;;;;;;7.00;6.33;;;;;12.02;100.00;102383.69;5089231;27;45823;-91
2024/01/26 07:27:22;;;;;;;;;10.00;5.00;;;;;12.57;100.00;102459.03;5086413;27;48000;-90
2024/01/26 07:29:47;;;;;;;;;7.00;7.00;;;;;12.70;100.00;102513.50;5077907;27;45385;-91
2024/01/26 07:32:13;;;;;;;;;7.67;5.67;;;;;12.35;100.00;102428.72;5096385;27;45979;-91
2024/01/26 07:34:39;;;;;;;;;9.00;6.00;;;;;11.92;100.00;102368.06;5079371;27;45328;-91
2024/01/26 07:37:04;;;;;;;;;10.00;7.67;;;;;12.94;100.00;102536.72;5096414;27;46201;-91
2024/01/26 07:39:30;;;;;;;;;9.00;7.33;;;;;11.94;100.00;102387.47;5096418;27;45311;-91
2024/01/26 07:41:57;;;;;;;;;7.00;7.00;;;;;12.49;100.00;102483.16;5096223;27;45341;-91
2024/01/26 07:44:23;;;;;;;;;7.67;4.00;;;;;12.56;100.00;102494.47;5079611;27;45563;-90
2024/01/26 07:46:49;;;;;;;;;8.00;7.00;;;;;12.50;100.00;102487.53;5090796;27;48074;-90
2024/01/26 07:49:14;;;;;;;;;8.00;7.00;;;;;12.57;100.00;102503.28;5078067;27;46140;-90
2024/01/26 07:51:39;;;;;;;;;6.67;6.67;;;;;12.88;100.00;102568.75;5103501;27;45488;-89
2024/01/26 07:54:06;;;;;;;;;7.33;7.00;;;;;11.85;100.00;102393.88;5095331;27;45517;-88
2024/01/26 07:56:31;;;;;;;;;10.33;6.00;;;;;11.85;100.00;102404.47;5096328;27;46497;-89
2024/01/26 07:58:57;;;;;;;;;10.33;6.67;;;;;12.11;100.00;102443.53;5069295;28;45510;-89
2024/01/26 08:01:22;;;;;;;;;9.00;5.00;;;;;12.33;100.00;102479.19;5078807;28;45428;-88
2024/01/26 08:03:48;;;;;;;;;7.00;5.00;;;;;12.79;100.00;102553.09;5088816;27;45406;-90
2024/01/26 08:06:13;;;;;;;;;8.00;4.00;;;;;12.05;100.00;102432.22;5097145;27;48064;-90
2024/01/26 08:08:41;;;;;;;;;7.00;5.33;;;;;12.39;100.00;102502.03;5063824;27;45758;-90
2024/01/26 08:11:09;;;;;;;;;8.00;6.33;;;;;12.18;100.00;102487.56;5071251;28;45302;-90
2024/01/26 08:13:34;;;;;;;;;15.00;5.33;;;;;12.84;100.00;102582.16;5090462;27;45537;-90
2024/01/26 08:16:00;;;;;;;;;3.67;3.67;;;;;12.48;100.00;102515.03;5095968;27;48001;-90
2024/01/26 08:18:25;;;;;;;;;6.33;4.00;;;;;12.06;100.00;102458.72;5070943;28;45546;-90
2024/01/26 08:20:52;;;;;;;;;4.00;2.00;;;;;12.44;100.00;102538.13;5065093;27;45360;-90
2024/01/26 08:23:17;;;;;;;;;3.00;3.00;;;;;12.60;100.00;102551.00;5078732;27;45799;-90
2024/01/26 08:25:43;;;;;;;;;4.00;3.00;;;;;11.94;100.00;102445.81;5059050;27;48144;-90
2024/01/26 08:28:08;;;;;;;;;4.00;3.00;;;;;12.21;100.00;102502.50;5082232;27;45492;-89
2024/01/26 08:30:35;;;;;;;;;3.00;3.00;;;;;12.40;100.00;102547.09;5063845;28;45477;-90
2024/01/26 08:33:00;;;;;;;;;2.67;2.67;;;;;12.39;100.00;102548.00;5065770;28;45312;-90
2024/01/26 08:35:26;;;;;;;;;3.00;2.00;;;;;11.88;100.00;102443.28;5079978;27;46558;-88
2024/01/26 08:37:51;;;;;;;;;3.67;3.67;;;;;12.24;100.00;102511.25;5073875;28;45336;-89
2024/01/26 08:40:20;;;;;;;;;5.00;3.00;;;;;12.58;100.00;102564.31;5064239;28;45306;-90
2024/01/26 08:42:48;;;;;;;;;3.00;3.00;;;;;11.95;100.00;102458.13;5069233;28;45618;-90
2024/01/26 08:45:13;;;;;;;;;4.00;2.67;;;;;12.49;100.00;102560.13;5064084;28;48266;-89
2024/01/26 08:47:38;;;;;;;;;6.00;3.67;;;;;12.23;100.00;102527.25;5083015;27;45249;-88
2024/01/26 08:50:05;;;;;;;;;3.67;2.67;;;;;12.73;100.00;102622.28;5081350;27;45703;-87
2024/01/26 08:52:31;;;;;;;;;2.00;2.00;;;;;12.34;100.00;102565.81;5070387;27;45597;-86
2024/01/26 08:54:57;;;;;;;;;2.67;2.00;;;;;12.94;100.00;102658.88;5097596;27;47115;-87
2024/01/26 08:57:22;;;;;;;;;3.00;3.00;;;;;12.53;100.00;102584.81;5095654;27;45316;-88
2024/01/26 09:00:04;;;;;;;;;4.00;3.00;;;;;13.01;100.00;102686.16;5091578;27;45352;-88
2024/01/26 09:02:32;;;;;;;;;4.00;4.00;;;;;12.28;100.00;102531.50;5082969;27;45441;-87
2024/01/26 09:05:09;;;;;;;;;2.67;2.67;;;;;12.72;100.00;102603.75;5078221;27;48068;-86
2024/01/26 09:07:43;;;;;;;;;5.33;4.00;;;;;12.03;100.00;102485.31;5090860;27;45447;-87
2024/01/26 09:10:23;;;;;;;;;4.67;2.00;;;;;13.05;100.00;102693.97;5058522;28;45525;-87
2024/01/26 09:12:52;;;;;;;;;3.00;3.00;;;;;12.41;100.00;102554.13;5063094;28;45513;-88
2024/01/26 09:15:24;;;;;;;;;2.67;2.00;;;;;12.76;100.00;102627.50;5071094;27;45433;-89
2024/01/26 09:18:00;;;;;;;;;5.67;4.00;;;;;12.35;100.00;102566.69;5076300;28;45305;-89
2024/01/26 09:20:30;;;;;;;;;3.33;3.33;;;;;12.69;100.00;102603.84;5083003;27;46100;-90
2024/01/26 09:22:59;;;;;;;;;4.33;3.33;;;;;12.47;100.00;102587.59;5084376;28;45442;-89
2024/01/26 09:25:37;;;;;;;;;3.33;3.00;;;;;13.13;100.00;102683.19;5054556;28;46455;-89
2024/01/26 09:28:09;;;;;;;;;4.67;1.67;;;;;13.14;100.00;102706.19;5098672;27;45676;-90
2024/01/26 09:30:35;;;;;;;;;3.00;3.00;;;;;12.39;100.00;102568.38;5063738;28;45432;-87
2024/01/26 09:33:22;;;;;;;;;2.00;2.00;;;;;12.49;100.00;102613.19;5082234;27;45268;-86
2024/01/26 09:35:47;;;;;;;;;2.33;2.00;;;;;12.54;100.00;102629.00;5079840;28;45400;-86
2024/01/26 09:38:13;;;;;;;;;2.00;2.00;;;;;12.44;100.00;102600.94;5072399;28;45324;-86
2024/01/26 09:40:39;;;;;;;;;4.33;2.33;;;;;13.03;100.00;102697.59;5063946;28;44773;-88
2024/01/26 09:43:17;;;;;;;;;2.67;1.00;;;;;12.60;100.00;102631.47;5071497;28;45300;-88
2024/01/26 09:45:43;;;;;;;;;4.00;2.00;;;;;13.03;100.00;102718.84;5077968;28;47121;-87
2024/01/26 09:48:16;;;;;;;;;3.33;2.00;;;;;12.78;100.00;102707.13;5081354;28;45292;-84
2024/01/26 09:50:51;;;;;;;;;1.67;1.67;;;;;12.79;100.00;102732.78;5077360;28;45544;-85
2024/01/26 09:53:18;;;;;;;;;1.00;1.00;;;;;12.94;100.00;102757.16;5059175;28;45689;-86
2024/01/26 09:55:46;;;;;;;;;1.00;0.00;;;;;12.84;100.00;102771.56;5063117;28;47031;-86
2024/01/26 09:58:16;;;;;;;;;0.00;0.00;;;;;12.96;100.00;102816.41;5068971;28;45248;-87
2024/01/26 10:00:44;;;;;;;;;1.00;0.00;;;;;12.00;100.00;102647.16;5060227;28;45386;-88
2024/01/26 10:03:11;;;;;;;;;0.00;0.00;;;;;12.12;100.00;102702.56;5081579;27;45386;-87
2024/01/26 10:05:47;;;;;;;;;0.00;0.00;;;;;11.92;100.00;102655.28;5052299;28;45668;-87
2024/01/26 10:08:13;;;;;;;;;0.00;0.00;;;;;12.26;100.00;102739.38;5080089;27;45345;-87
2024/01/26 10:10:41;;;;;;;;;0.00;0.00;;;;;12.51;100.00;102805.13;5065185;28;45408;-85
2024/01/26 10:13:12;;;;;;;;;1.00;0.00;;;;;11.59;100.00;102626.84;5076919;28;45435;-84
2024/01/26 10:15:41;;;;;;;;;0.00;0.00;;;;;11.60;100.00;102643.63;5077212;28;46325;-86
2024/01/26 10:20:59;;;;;;;;;0.33;0.00;;;;;12.42;100.00;102768.19;5062192;28;45497;-86
2024/01/26 10:23:25;;;;;;;;;0.00;0.00;;;;;12.36;100.00;102762.16;5095236;27;45553;-89
2024/01/26 10:25:51;;;;;;;;;2.00;1.00;;;;;11.91;100.00;102688.00;5080005;28;45489;-88
2024/01/26 10:28:27;;;;;;;;;1.00;1.00;;;;;11.96;100.00;102707.34;5067404;28;45383;-88
2024/01/26 10:30:56;;;;;;;;;0.00;0.00;;;;;12.16;100.00;102752.00;5063510;28;45444;-88
2024/01/26 10:33:23;;;;;;;;;1.67;0.00;;;;;12.03;100.00;102716.03;5062576;28;45526;-87
2024/01/26 10:35:51;;;;;;;;;0.00;0.00;;;;;12.49;100.00;102793.69;5053417;28;46364;-88
2024/01/26 10:38:32;;;;;;;;;;;;;;;;;;;;;
2024/01/26 10:41:04;;;;;;;;;0.00;0.00;;;;;12.52;100.00;102798.91;5079108;28;67951;-87
2024/01/26 10:43:37;;;;;;;;;0.00;0.00;;;;;12.09;100.00;102718.56;5055863;28;45294;-87
2024/01/26 10:46:09;;;;;;;;;1.67;1.00;;;;;12.26;100.00;102771.22;5097596;27;47672;-87
2024/01/26 10:48:46;;;;;;;;;2.00;0.00;;;;;12.44;100.00;102763.69;5062082;28;45423;-86
2024/01/26 10:51:43;;;;;;;;;0.33;0.00;;;;;12.32;100.00;102737.47;5068152;27;45501;-86
2024/01/26 10:54:25;;;;;;;;;2.00;0.00;;;;;12.34;100.00;102751.56;5096849;27;45527;-86
2024/01/26 10:56:51;;;;;;;;;0.00;0.00;;;;;12.14;100.00;102716.66;5062705;28;45654;-86
2024/01/26 10:59:17;;;;;;;;;0.00;0.00;;;;;12.81;100.00;102821.22;5072027;28;45438;-86
2024/01/26 11:02:00;;;;;;;;;1.00;1.00;;;;;12.49;100.00;102785.72;5079428;27;45477;-86
2024/01/26 11:04:30;;;;;;;;;2.00;0.33;;;;;12.36;100.00;102780.72;5060505;28;45655;-85
2024/01/26 11:07:10;;;;;;;;;0.00;0.00;;;;;12.29;100.00;102768.50;5067816;28;45779;-85
2024/01/26 11:09:45;;;;;;;;;0.00;0.00;;;;;12.07;100.00;102724.81;5056967;28;45448;-86
2024/01/26 11:12:32;;;;;;;;;2.00;0.00;;;;;12.02;100.00;102735.50;5076512;28;45437;-87
2024/01/26 11:15:18;;;;;;;;;1.00;1.00;;;;;12.22;100.00;102766.88;5055637;28;45471;-85
2024/01/26 11:18:01;;;;;;;;;0.00;0.00;;;;;13.23;100.00;102925.59;5078655;28;46247;-85
2024/01/26 11:20:31;;;;;;;;;2.33;1.00;;;;;12.72;100.00;102824.09;5078495;28;45479;-85
2024/01/26 11:23:27;;;;;;;;;;;;;;;;;;;;;
2024/01/26 11:25:57;;;;;;;;;1.67;1.00;;;;;12.27;97.65;102788.91;5073093;28;72599;-86
2024/01/26 11:28:29;;;;;;;;;2.67;1.00;;;;;12.47;95.83;102821.13;5079186;28;45473;-86
2024/01/26 11:31:09;;;;;;;;;2.33;2.00;;;;;12.50;99.10;102826.38;5078440;28;45783;-85